sensor_id;sensor_type;location;lat;lon;timestamp;temperature;humidity
11454;DHT22;5783;55.174;61.310;2023-06-19T00:01:02;24.00;43.00
11454;DHT22;5783;55.174;61.310;2023-06-19T00:03:31;24.00;43.00
11454;DHT22;5783;55.174;61.310;2023-06-19T00:06:00;24.00;43.10
11454;DHT22;5783;55.174;61.310;2023-06-19T00:08:29;24.00;43.00
11454;DHT22;5783;55.174;61.310;2023-06-19T00:10:58;24.00;43.00
11454;DHT22;5783;55.174;61.310;2023-06-19T00:13:27;24.00;42.90
11454;DHT22;5783;55.174;61.310;2023-06-19T00:15:57;24.00;42.80
11454;DHT22;5783;55.174;61.310;2023-06-19T00:18:27;24.00;42.80
11454;DHT22;5783;55.174;61.310;2023-06-19T00:20:57;24.00;42.80
11454;DHT22;5783;55.174;61.310;2023-06-19T00:23:26;23.90;42.70
11454;DHT22;5783;55.174;61.310;2023-06-19T00:25:56;23.90;42.80
11454;DHT22;5783;55.174;61.310;2023-06-19T00:28:28;23.90;42.80
11454;DHT22;5783;55.174;61.310;2023-06-19T00:30:58;23.90;42.90
11454;DHT22;5783;55.174;61.310;2023-06-19T00:33:27;23.90;42.80
11454;DHT22;5783;55.174;61.310;2023-06-19T00:35:56;23.90;42.80
11454;DHT22;5783;55.174;61.310;2023-06-19T00:38:25;23.90;42.90
11454;DHT22;5783;55.174;61.310;2023-06-19T00:40:55;23.90;43.00
11454;DHT22;5783;55.174;61.310;2023-06-19T00:43:24;23.90;42.90
11454;DHT22;5783;55.174;61.310;2023-06-19T00:45:53;23.90;42.80
11454;DHT22;5783;55.174;61.310;2023-06-19T00:48:22;23.90;42.90
11454;DHT22;5783;55.174;61.310;2023-06-19T00:50:52;23.90;42.90
11454;DHT22;5783;55.174;61.310;2023-06-19T00:53:22;23.90;42.90
11454;DHT22;5783;55.174;61.310;2023-06-19T00:55:53;23.90;42.90
11454;DHT22;5783;55.174;61.310;2023-06-19T00:58:23;23.90;42.90
11454;DHT22;5783;55.174;61.310;2023-06-19T01:00:53;23.90;42.90
11454;DHT22;5783;55.174;61.310;2023-06-19T01:03:24;23.90;42.90
11454;DHT22;5783;55.174;61.310;2023-06-19T01:05:54;23.90;42.90
11454;DHT22;5783;55.174;61.310;2023-06-19T01:17:14;23.90;43.00
11454;DHT22;5783;55.174;61.310;2023-06-19T01:19:44;23.90;43.10
11454;DHT22;5783;55.174;61.310;2023-06-19T01:25:04;23.90;43.10
11454;DHT22;5783;55.174;61.310;2023-06-19T01:27:35;23.90;43.00
11454;DHT22;5783;55.174;61.310;2023-06-19T01:30:05;23.90;43.10
11454;DHT22;5783;55.174;61.310;2023-06-19T01:35:31;23.90;43.00
11454;DHT22;5783;55.174;61.310;2023-06-19T01:38:01;23.90;43.00
11454;DHT22;5783;55.174;61.310;2023-06-19T01:40:32;23.90;43.00
11454;DHT22;5783;55.174;61.310;2023-06-19T01:43:02;23.90;43.00
11454;DHT22;5783;55.174;61.310;2023-06-19T01:45:32;23.90;43.00
11454;DHT22;5783;55.174;61.310;2023-06-19T01:48:02;23.90;42.90
11454;DHT22;5783;55.174;61.310;2023-06-19T01:50:32;23.90;43.00
11454;DHT22;5783;55.174;61.310;2023-06-19T01:53:01;23.90;43.00
11454;DHT22;5783;55.174;61.310;2023-06-19T01:55:30;23.90;43.00
11454;DHT22;5783;55.174;61.310;2023-06-19T01:58:00;23.90;43.00
11454;DHT22;5783;55.174;61.310;2023-06-19T02:00:29;23.90;43.00
11454;DHT22;5783;55.174;61.310;2023-06-19T02:03:00;23.90;43.10
11454;DHT22;5783;55.174;61.310;2023-06-19T02:05:30;23.90;42.90
11454;DHT22;5783;55.174;61.310;2023-06-19T02:07:59;23.90;43.00
11454;DHT22;5783;55.174;61.310;2023-06-19T02:10:28;23.90;43.00
11454;DHT22;5783;55.174;61.310;2023-06-19T02:12:58;23.90;43.00
11454;DHT22;5783;55.174;61.310;2023-06-19T02:15:28;23.90;43.00
11454;DHT22;5783;55.174;61.310;2023-06-19T02:17:57;23.90;43.10
11454;DHT22;5783;55.174;61.310;2023-06-19T02:20:27;23.90;43.10
11454;DHT22;5783;55.174;61.310;2023-06-19T02:22:56;23.90;43.10
11454;DHT22;5783;55.174;61.310;2023-06-19T02:25:25;23.90;43.10
11454;DHT22;5783;55.174;61.310;2023-06-19T02:27:55;23.90;43.10
11454;DHT22;5783;55.174;61.310;2023-06-19T02:30:24;23.90;43.10
11454;DHT22;5783;55.174;61.310;2023-06-19T02:32:53;23.90;43.20
11454;DHT22;5783;55.174;61.310;2023-06-19T02:35:22;23.90;43.20
11454;DHT22;5783;55.174;61.310;2023-06-19T02:37:51;23.90;43.10
11454;DHT22;5783;55.174;61.310;2023-06-19T02:40:20;23.90;43.20
11454;DHT22;5783;55.174;61.310;2023-06-19T02:42:49;23.90;43.20
11454;DHT22;5783;55.174;61.310;2023-06-19T02:45:19;23.90;43.30
11454;DHT22;5783;55.174;61.310;2023-06-19T02:47:48;23.90;43.30
11454;DHT22;5783;55.174;61.310;2023-06-19T02:50:18;23.90;43.30
11454;DHT22;5783;55.174;61.310;2023-06-19T02:52:47;23.90;43.30
11454;DHT22;5783;55.174;61.310;2023-06-19T02:55:16;23.90;43.30
11454;DHT22;5783;55.174;61.310;2023-06-19T02:57:47;23.90;43.30
11454;DHT22;5783;55.174;61.310;2023-06-19T03:00:16;23.90;43.30
11454;DHT22;5783;55.174;61.310;2023-06-19T03:02:46;23.90;43.30
11454;DHT22;5783;55.174;61.310;2023-06-19T03:05:17;23.90;43.90
11454;DHT22;5783;55.174;61.310;2023-06-19T03:07:46;23.90;43.30
11454;DHT22;5783;55.174;61.310;2023-06-19T03:10:15;23.90;43.30
11454;DHT22;5783;55.174;61.310;2023-06-19T03:12:45;23.90;43.30
11454;DHT22;5783;55.174;61.310;2023-06-19T03:15:14;23.90;43.30
11454;DHT22;5783;55.174;61.310;2023-06-19T03:17:44;23.90;43.30
11454;DHT22;5783;55.174;61.310;2023-06-19T03:20:13;23.90;43.30
11454;DHT22;5783;55.174;61.310;2023-06-19T03:22:42;23.90;43.40
11454;DHT22;5783;55.174;61.310;2023-06-19T03:25:12;23.90;43.30
11454;DHT22;5783;55.174;61.310;2023-06-19T03:27:41;23.90;43.30
11454;DHT22;5783;55.174;61.310;2023-06-19T03:30:10;23.90;43.40
11454;DHT22;5783;55.174;61.310;2023-06-19T03:32:39;23.90;43.50
11454;DHT22;5783;55.174;61.310;2023-06-19T03:35:09;23.80;43.40
11454;DHT22;5783;55.174;61.310;2023-06-19T03:37:38;23.80;43.40
11454;DHT22;5783;55.174;61.310;2023-06-19T03:40:08;23.90;43.50
11454;DHT22;5783;55.174;61.310;2023-06-19T03:43:12;23.90;43.50
11454;DHT22;5783;55.174;61.310;2023-06-19T03:45:10;23.90;43.40
11454;DHT22;5783;55.174;61.310;2023-06-19T03:47:39;23.90;43.40
11454;DHT22;5783;55.174;61.310;2023-06-19T03:50:08;23.90;42.80
11454;DHT22;5783;55.174;61.310;2023-06-19T03:52:38;23.90;43.40
11454;DHT22;5783;55.174;61.310;2023-06-19T03:55:07;23.90;43.40
11454;DHT22;5783;55.174;61.310;2023-06-19T03:57:36;23.90;43.30
11454;DHT22;5783;55.174;61.310;2023-06-19T04:00:06;23.90;43.30
11454;DHT22;5783;55.174;61.310;2023-06-19T04:02:37;23.90;43.30
11454;DHT22;5783;55.174;61.310;2023-06-19T04:05:07;23.90;43.20
11454;DHT22;5783;55.174;61.310;2023-06-19T04:07:36;23.90;43.30
11454;DHT22;5783;55.174;61.310;2023-06-19T04:10:06;23.90;43.30
11454;DHT22;5783;55.174;61.310;2023-06-19T04:12:35;23.90;43.20
11454;DHT22;5783;55.174;61.310;2023-06-19T04:15:05;23.90;43.30
11454;DHT22;5783;55.174;61.310;2023-06-19T04:17:34;23.90;43.20
11454;DHT22;5783;55.174;61.310;2023-06-19T04:20:04;23.90;43.20
11454;DHT22;5783;55.174;61.310;2023-06-19T04:22:53;23.90;43.20
11454;DHT22;5783;55.174;61.310;2023-06-19T04:25:22;23.90;43.30
11454;DHT22;5783;55.174;61.310;2023-06-19T04:27:51;23.90;43.20
11454;DHT22;5783;55.174;61.310;2023-06-19T04:30:21;23.90;42.50
11454;DHT22;5783;55.174;61.310;2023-06-19T04:32:50;23.80;42.70
11454;DHT22;5783;55.174;61.310;2023-06-19T04:35:20;23.70;42.80
11454;DHT22;5783;55.174;61.310;2023-06-19T04:37:50;23.60;42.90
11454;DHT22;5783;55.174;61.310;2023-06-19T04:40:19;23.50;43.10
11454;DHT22;5783;55.174;61.310;2023-06-19T04:42:48;23.50;43.40
11454;DHT22;5783;55.174;61.310;2023-06-19T04:45:20;23.40;43.50
11454;DHT22;5783;55.174;61.310;2023-06-19T04:47:49;23.40;43.80
11454;DHT22;5783;55.174;61.310;2023-06-19T04:50:18;23.40;43.90
11454;DHT22;5783;55.174;61.310;2023-06-19T04:52:48;23.40;43.90
11454;DHT22;5783;55.174;61.310;2023-06-19T04:55:17;23.40;44.00
11454;DHT22;5783;55.174;61.310;2023-06-19T04:57:47;23.40;44.10
11454;DHT22;5783;55.174;61.310;2023-06-19T05:00:17;23.40;44.00
11454;DHT22;5783;55.174;61.310;2023-06-19T05:02:48;23.40;44.20
11454;DHT22;5783;55.174;61.310;2023-06-19T05:05:17;23.50;44.50
11454;DHT22;5783;55.174;61.310;2023-06-19T05:07:47;23.50;44.50
11454;DHT22;5783;55.174;61.310;2023-06-19T05:10:16;23.60;44.40
11454;DHT22;5783;55.174;61.310;2023-06-19T05:12:47;23.70;44.10
11454;DHT22;5783;55.174;61.310;2023-06-19T05:15:16;23.70;44.00
11454;DHT22;5783;55.174;61.310;2023-06-19T05:17:45;23.80;43.90
11454;DHT22;5783;55.174;61.310;2023-06-19T05:20:14;23.80;44.10
11454;DHT22;5783;55.174;61.310;2023-06-19T05:22:43;23.80;43.90
11454;DHT22;5783;55.174;61.310;2023-06-19T05:25:13;23.90;43.60
11454;DHT22;5783;55.174;61.310;2023-06-19T05:27:42;23.90;43.70
11454;DHT22;5783;55.174;61.310;2023-06-19T05:30:11;23.90;43.50
11454;DHT22;5783;55.174;61.310;2023-06-19T05:32:41;24.00;43.40
11454;DHT22;5783;55.174;61.310;2023-06-19T05:35:10;24.00;43.30
11454;DHT22;5783;55.174;61.310;2023-06-19T05:37:39;24.10;44.10
11454;DHT22;5783;55.174;61.310;2023-06-19T05:40:10;24.10;43.60
11454;DHT22;5783;55.174;61.310;2023-06-19T05:42:41;24.10;43.60
11454;DHT22;5783;55.174;61.310;2023-06-19T05:45:10;24.10;43.70
11454;DHT22;5783;55.174;61.310;2023-06-19T05:47:39;24.20;43.70
11454;DHT22;5783;55.174;61.310;2023-06-19T05:50:09;24.20;43.60
11454;DHT22;5783;55.174;61.310;2023-06-19T05:52:38;24.20;43.60
11454;DHT22;5783;55.174;61.310;2023-06-19T05:55:10;24.20;43.40
11454;DHT22;5783;55.174;61.310;2023-06-19T05:57:39;24.20;43.00
11454;DHT22;5783;55.174;61.310;2023-06-19T06:00:09;24.20;42.90
11454;DHT22;5783;55.174;61.310;2023-06-19T06:02:40;24.30;43.00
11454;DHT22;5783;55.174;61.310;2023-06-19T06:05:10;24.30;42.80
11454;DHT22;5783;55.174;61.310;2023-06-19T06:07:39;24.30;42.50
11454;DHT22;5783;55.174;61.310;2023-06-19T06:10:09;24.30;42.40
11454;DHT22;5783;55.174;61.310;2023-06-19T06:12:38;24.30;42.30
11454;DHT22;5783;55.174;61.310;2023-06-19T06:15:07;24.30;42.50
11454;DHT22;5783;55.174;61.310;2023-06-19T06:17:37;24.30;42.00
11454;DHT22;5783;55.174;61.310;2023-06-19T06:20:07;24.30;42.00
11454;DHT22;5783;55.174;61.310;2023-06-19T06:25:27;24.30;41.80
11454;DHT22;5783;55.174;61.310;2023-06-19T06:27:56;24.30;41.70
11454;DHT22;5783;55.174;61.310;2023-06-19T06:30:25;24.30;41.90
11454;DHT22;5783;55.174;61.310;2023-06-19T06:32:55;24.30;41.90
11454;DHT22;5783;55.174;61.310;2023-06-19T06:35:24;24.40;41.90
11454;DHT22;5783;55.174;61.310;2023-06-19T06:37:54;24.40;42.10
11454;DHT22;5783;55.174;61.310;2023-06-19T06:40:23;24.40;42.00
11454;DHT22;5783;55.174;61.310;2023-06-19T06:42:52;24.40;41.70
11454;DHT22;5783;55.174;61.310;2023-06-19T06:45:21;24.40;41.70
11454;DHT22;5783;55.174;61.310;2023-06-19T06:47:50;24.40;41.60
11454;DHT22;5783;55.174;61.310;2023-06-19T06:50:20;24.40;41.50
11454;DHT22;5783;55.174;61.310;2023-06-19T06:52:49;24.40;41.60
11454;DHT22;5783;55.174;61.310;2023-06-19T06:55:18;24.40;41.80
11454;DHT22;5783;55.174;61.310;2023-06-19T06:57:47;24.40;41.80
11454;DHT22;5783;55.174;61.310;2023-06-19T07:00:16;24.50;42.00
11454;DHT22;5783;55.174;61.310;2023-06-19T07:02:46;24.50;41.70
11454;DHT22;5783;55.174;61.310;2023-06-19T07:05:16;24.40;41.60
11454;DHT22;5783;55.174;61.310;2023-06-19T07:07:46;24.40;41.50
11454;DHT22;5783;55.174;61.310;2023-06-19T07:10:15;24.50;41.50
11454;DHT22;5783;55.174;61.310;2023-06-19T07:13:04;24.40;40.80
11454;DHT22;5783;55.174;61.310;2023-06-19T07:15:33;24.50;41.50
11454;DHT22;5783;55.174;61.310;2023-06-19T07:18:02;24.40;41.30
11454;DHT22;5783;55.174;61.310;2023-06-19T07:20:31;24.50;41.30
11454;DHT22;5783;55.174;61.310;2023-06-19T07:23:00;24.50;41.30
11454;DHT22;5783;55.174;61.310;2023-06-19T07:25:30;24.50;41.30
11454;DHT22;5783;55.174;61.310;2023-06-19T07:28:00;24.50;41.30
11454;DHT22;5783;55.174;61.310;2023-06-19T07:30:31;24.50;41.40
11454;DHT22;5783;55.174;61.310;2023-06-19T07:33:00;24.60;41.50
11454;DHT22;5783;55.174;61.310;2023-06-19T07:35:29;24.60;41.40
11454;DHT22;5783;55.174;61.310;2023-06-19T07:37:59;24.60;41.50
11454;DHT22;5783;55.174;61.310;2023-06-19T07:40:28;24.60;41.60
11454;DHT22;5783;55.174;61.310;2023-06-19T07:42:57;24.60;41.40
11454;DHT22;5783;55.174;61.310;2023-06-19T07:45:26;24.60;41.40
11454;DHT22;5783;55.174;61.310;2023-06-19T07:47:56;24.60;41.40
11454;DHT22;5783;55.174;61.310;2023-06-19T07:50:25;24.70;41.30
11454;DHT22;5783;55.174;61.310;2023-06-19T07:52:54;24.70;41.40
11454;DHT22;5783;55.174;61.310;2023-06-19T07:55:24;24.70;41.30
11454;DHT22;5783;55.174;61.310;2023-06-19T07:57:53;24.70;41.20
11454;DHT22;5783;55.174;61.310;2023-06-19T08:00:24;24.70;41.20
11454;DHT22;5783;55.174;61.310;2023-06-19T08:02:53;24.70;41.20
11454;DHT22;5783;55.174;61.310;2023-06-19T08:05:22;24.70;41.40
11454;DHT22;5783;55.174;61.310;2023-06-19T08:07:51;24.70;41.20
11454;DHT22;5783;55.174;61.310;2023-06-19T08:10:21;24.70;41.20
11454;DHT22;5783;55.174;61.310;2023-06-19T08:12:50;24.70;41.40
11454;DHT22;5783;55.174;61.310;2023-06-19T08:15:19;24.70;41.00
11454;DHT22;5783;55.174;61.310;2023-06-19T08:17:48;24.70;41.00
11454;DHT22;5783;55.174;61.310;2023-06-19T08:20:17;24.70;41.10
11454;DHT22;5783;55.174;61.310;2023-06-19T08:22:46;24.70;41.00
11454;DHT22;5783;55.174;61.310;2023-06-19T08:25:16;24.70;41.10
11454;DHT22;5783;55.174;61.310;2023-06-19T08:27:45;24.70;41.00
11454;DHT22;5783;55.174;61.310;2023-06-19T08:30:14;24.70;40.80
11454;DHT22;5783;55.174;61.310;2023-06-19T08:32:46;24.70;40.80
11454;DHT22;5783;55.174;61.310;2023-06-19T08:35:15;24.70;40.80
11454;DHT22;5783;55.174;61.310;2023-06-19T08:37:44;24.70;40.60
11454;DHT22;5783;55.174;61.310;2023-06-19T08:40:14;24.70;40.60
11454;DHT22;5783;55.174;61.310;2023-06-19T08:42:43;24.70;40.50
11454;DHT22;5783;55.174;61.310;2023-06-19T08:45:12;24.70;40.40
11454;DHT22;5783;55.174;61.310;2023-06-19T08:47:43;24.70;40.60
11454;DHT22;5783;55.174;61.310;2023-06-19T08:50:12;24.70;40.30
11454;DHT22;5783;55.174;61.310;2023-06-19T08:52:41;24.70;40.40
11454;DHT22;5783;55.174;61.310;2023-06-19T08:55:11;24.70;40.20
11454;DHT22;5783;55.174;61.310;2023-06-19T08:57:40;24.70;40.20
11454;DHT22;5783;55.174;61.310;2023-06-19T09:00:09;24.70;40.30
11454;DHT22;5783;55.174;61.310;2023-06-19T09:05:48;24.70;40.30
11454;DHT22;5783;55.174;61.310;2023-06-19T09:08:19;24.70;40.50
11454;DHT22;5783;55.174;61.310;2023-06-19T09:11:09;24.70;39.90
11454;DHT22;5783;55.174;61.310;2023-06-19T09:13:38;24.70;40.20
11454;DHT22;5783;55.174;61.310;2023-06-19T09:16:08;24.70;40.20
11454;DHT22;5783;55.174;61.310;2023-06-19T09:18:56;24.70;40.20
11454;DHT22;5783;55.174;61.310;2023-06-19T09:21:26;24.70;40.10
11454;DHT22;5783;55.174;61.310;2023-06-19T09:23:59;24.70;40.30
11454;DHT22;5783;55.174;61.310;2023-06-19T09:26:25;24.70;40.40
11454;DHT22;5783;55.174;61.310;2023-06-19T09:28:55;24.70;39.70
11454;DHT22;5783;55.174;61.310;2023-06-19T09:31:43;24.70;39.50
11454;DHT22;5783;55.174;61.310;2023-06-19T09:34:12;24.70;39.30
11454;DHT22;5783;55.174;61.310;2023-06-19T09:39:32;24.70;39.20
11454;DHT22;5783;55.174;61.310;2023-06-19T09:42:02;24.70;39.40
11454;DHT22;5783;55.174;61.310;2023-06-19T09:44:34;24.70;39.30
11454;DHT22;5783;55.174;61.310;2023-06-19T09:47:04;24.70;39.10
11454;DHT22;5783;55.174;61.310;2023-06-19T09:49:36;24.70;39.10
11454;DHT22;5783;55.174;61.310;2023-06-19T09:52:06;24.70;39.30
11454;DHT22;5783;55.174;61.310;2023-06-19T09:54:36;24.70;39.30
11454;DHT22;5783;55.174;61.310;2023-06-19T09:57:06;24.70;39.00
11454;DHT22;5783;55.174;61.310;2023-06-19T09:59:36;24.70;38.80
11454;DHT22;5783;55.174;61.310;2023-06-19T10:02:06;24.70;38.80
11454;DHT22;5783;55.174;61.310;2023-06-19T10:04:55;24.70;39.20
11454;DHT22;5783;55.174;61.310;2023-06-19T10:07:32;24.80;38.80
11454;DHT22;5783;55.174;61.310;2023-06-19T10:16:34;24.70;38.40
11454;DHT22;5783;55.174;61.310;2023-06-19T10:19:11;24.70;38.10
11454;DHT22;5783;55.174;61.310;2023-06-19T10:24:26;24.60;37.90
11454;DHT22;5783;55.174;61.310;2023-06-19T10:27:20;24.60;37.90
11454;DHT22;5783;55.174;61.310;2023-06-19T10:29:51;24.70;38.00
11454;DHT22;5783;55.174;61.310;2023-06-19T10:32:16;24.70;37.90
11454;DHT22;5783;55.174;61.310;2023-06-19T10:35:10;24.70;38.00
11454;DHT22;5783;55.174;61.310;2023-06-19T10:37:35;24.70;37.50
11454;DHT22;5783;55.174;61.310;2023-06-19T10:40:06;24.70;37.40
11454;DHT22;5783;55.174;61.310;2023-06-19T10:42:56;24.70;37.20
11454;DHT22;5783;55.174;61.310;2023-06-19T10:45:25;24.70;37.10
11454;DHT22;5783;55.174;61.310;2023-06-19T10:47:55;24.80;37.10
11454;DHT22;5783;55.174;61.310;2023-06-19T10:50:25;24.80;37.10
11454;DHT22;5783;55.174;61.310;2023-06-19T10:52:54;24.80;37.10
11454;DHT22;5783;55.174;61.310;2023-06-19T10:55:43;24.80;37.10
11454;DHT22;5783;55.174;61.310;2023-06-19T10:58:12;24.80;37.00
11454;DHT22;5783;55.174;61.310;2023-06-19T11:00:41;24.80;36.50
11454;DHT22;5783;55.174;61.310;2023-06-19T11:03:10;24.80;36.50
11454;DHT22;5783;55.174;61.310;2023-06-19T11:05:43;24.80;36.90
11454;DHT22;5783;55.174;61.310;2023-06-19T11:11:02;24.80;36.80
11454;DHT22;5783;55.174;61.310;2023-06-19T11:13:31;24.80;36.30
11454;DHT22;5783;55.174;61.310;2023-06-19T11:16:00;24.70;33.90
11454;DHT22;5783;55.174;61.310;2023-06-19T11:18:30;24.60;33.00
11454;DHT22;5783;55.174;61.310;2023-06-19T11:21:00;24.50;33.00
11454;DHT22;5783;55.174;61.310;2023-06-19T11:23:30;24.50;32.70
11454;DHT22;5783;55.174;61.310;2023-06-19T11:26:19;24.40;32.40
11454;DHT22;5783;55.174;61.310;2023-06-19T11:28:50;24.30;32.20
11454;DHT22;5783;55.174;61.310;2023-06-19T11:34:10;24.10;32.30
11454;DHT22;5783;55.174;61.310;2023-06-19T11:36:40;24.00;32.70
11454;DHT22;5783;55.174;61.310;2023-06-19T11:39:11;24.00;32.70
11454;DHT22;5783;55.174;61.310;2023-06-19T11:41:43;23.90;32.50
11454;DHT22;5783;55.174;61.310;2023-06-19T11:44:13;23.90;32.60
11454;DHT22;5783;55.174;61.310;2023-06-19T11:46:42;23.80;32.70
11454;DHT22;5783;55.174;61.310;2023-06-19T11:49:15;23.80;32.80
11454;DHT22;5783;55.174;61.310;2023-06-19T11:51:46;23.70;32.90
11454;DHT22;5783;55.174;61.310;2023-06-19T11:54:15;23.60;33.20
11454;DHT22;5783;55.174;61.310;2023-06-19T11:56:45;23.60;33.20
11454;DHT22;5783;55.174;61.310;2023-06-19T11:59:33;23.50;33.50
11454;DHT22;5783;55.174;61.310;2023-06-19T12:02:02;23.50;33.70
11454;DHT22;5783;55.174;61.310;2023-06-19T12:04:32;23.50;33.70
11454;DHT22;5783;55.174;61.310;2023-06-19T12:07:01;23.50;33.70
11454;DHT22;5783;55.174;61.310;2023-06-19T12:09:31;23.50;33.50
11454;DHT22;5783;55.174;61.310;2023-06-19T12:12:01;23.40;33.60
11454;DHT22;5783;55.174;61.310;2023-06-19T12:14:30;23.40;33.60
11454;DHT22;5783;55.174;61.310;2023-06-19T12:16:59;23.30;33.60
11454;DHT22;5783;55.174;61.310;2023-06-19T12:19:28;23.30;33.50
11454;DHT22;5783;55.174;61.310;2023-06-19T12:21:58;23.20;33.40
11454;DHT22;5783;55.174;61.310;2023-06-19T12:24:27;23.20;33.40
11454;DHT22;5783;55.174;61.310;2023-06-19T12:26:56;23.10;33.20
11454;DHT22;5783;55.174;61.310;2023-06-19T12:29:25;23.10;33.10
11454;DHT22;5783;55.174;61.310;2023-06-19T12:32:16;23.10;33.20
11454;DHT22;5783;55.174;61.310;2023-06-19T12:34:45;23.10;33.20
11454;DHT22;5783;55.174;61.310;2023-06-19T12:37:15;23.10;33.10
11454;DHT22;5783;55.174;61.310;2023-06-19T12:39:45;23.10;32.90
11454;DHT22;5783;55.174;61.310;2023-06-19T12:42:14;23.10;32.70
11454;DHT22;5783;55.174;61.310;2023-06-19T12:44:43;23.10;32.50
11454;DHT22;5783;55.174;61.310;2023-06-19T12:47:14;23.00;32.40
11454;DHT22;5783;55.174;61.310;2023-06-19T12:49:44;23.00;32.60
11454;DHT22;5783;55.174;61.310;2023-06-19T12:54:45;23.00;32.10
11454;DHT22;5783;55.174;61.310;2023-06-19T12:57:14;23.00;31.90
11454;DHT22;5783;55.174;61.310;2023-06-19T12:59:43;23.00;31.30
11454;DHT22;5783;55.174;61.310;2023-06-19T13:02:12;23.00;31.10
11454;DHT22;5783;55.174;61.310;2023-06-19T13:04:41;23.00;31.00
11454;DHT22;5783;55.174;61.310;2023-06-19T13:07:10;23.00;30.60
11454;DHT22;5783;55.174;61.310;2023-06-19T13:09:40;23.00;30.50
11454;DHT22;5783;55.174;61.310;2023-06-19T13:12:09;23.00;30.50
11454;DHT22;5783;55.174;61.310;2023-06-19T13:14:38;23.00;30.50
11454;DHT22;5783;55.174;61.310;2023-06-19T13:17:08;23.00;30.80
11454;DHT22;5783;55.174;61.310;2023-06-19T13:19:37;23.00;30.60
11454;DHT22;5783;55.174;61.310;2023-06-19T13:22:07;23.00;30.90
11454;DHT22;5783;55.174;61.310;2023-06-19T13:24:36;23.00;31.10
11454;DHT22;5783;55.174;61.310;2023-06-19T13:27:05;22.90;31.00
11454;DHT22;5783;55.174;61.310;2023-06-19T13:29:34;22.90;31.10
11454;DHT22;5783;55.174;61.310;2023-06-19T13:32:05;22.80;31.40
11454;DHT22;5783;55.174;61.310;2023-06-19T13:34:35;22.80;31.70
11454;DHT22;5783;55.174;61.310;2023-06-19T13:37:04;22.80;32.10
11454;DHT22;5783;55.174;61.310;2023-06-19T13:39:33;22.80;32.00
11454;DHT22;5783;55.174;61.310;2023-06-19T13:42:02;22.80;32.20
11454;DHT22;5783;55.174;61.310;2023-06-19T13:44:31;22.80;32.50
11454;DHT22;5783;55.174;61.310;2023-06-19T13:47:02;22.80;32.50
11454;DHT22;5783;55.174;61.310;2023-06-19T13:49:32;22.70;32.50
11454;DHT22;5783;55.174;61.310;2023-06-19T13:52:01;22.70;32.60
11454;DHT22;5783;55.174;61.310;2023-06-19T13:54:30;22.80;32.80
11454;DHT22;5783;55.174;61.310;2023-06-19T13:57:00;22.80;33.00
11454;DHT22;5783;55.174;61.310;2023-06-19T13:59:30;22.80;33.00
11454;DHT22;5783;55.174;61.310;2023-06-19T14:01:59;22.70;33.10
11454;DHT22;5783;55.174;61.310;2023-06-19T14:04:29;22.70;33.30
11454;DHT22;5783;55.174;61.310;2023-06-19T14:06:58;22.70;33.30
11454;DHT22;5783;55.174;61.310;2023-06-19T14:09:28;22.80;33.30
11454;DHT22;5783;55.174;61.310;2023-06-19T14:11:57;22.80;33.40
11454;DHT22;5783;55.174;61.310;2023-06-19T14:14:26;22.80;33.40
11454;DHT22;5783;55.174;61.310;2023-06-19T14:16:55;22.70;33.70
11454;DHT22;5783;55.174;61.310;2023-06-19T14:19:24;22.60;33.70
11454;DHT22;5783;55.174;61.310;2023-06-19T14:21:55;22.60;34.10
11454;DHT22;5783;55.174;61.310;2023-06-19T14:24:24;22.60;34.20
11454;DHT22;5783;55.174;61.310;2023-06-19T14:26:53;22.50;34.30
11454;DHT22;5783;55.174;61.310;2023-06-19T14:29:22;22.50;34.40
11454;DHT22;5783;55.174;61.310;2023-06-19T14:31:52;22.50;34.50
11454;DHT22;5783;55.174;61.310;2023-06-19T14:34:21;22.40;34.30
11454;DHT22;5783;55.174;61.310;2023-06-19T14:36:50;22.40;34.40
11454;DHT22;5783;55.174;61.310;2023-06-19T14:39:20;22.40;34.60
11454;DHT22;5783;55.174;61.310;2023-06-19T14:41:49;22.30;34.60
11454;DHT22;5783;55.174;61.310;2023-06-19T14:44:18;22.30;34.00
11454;DHT22;5783;55.174;61.310;2023-06-19T14:46:47;22.30;34.70
11454;DHT22;5783;55.174;61.310;2023-06-19T14:49:16;22.20;34.10
11454;DHT22;5783;55.174;61.310;2023-06-19T14:51:46;22.20;34.30
11454;DHT22;5783;55.174;61.310;2023-06-19T14:54:15;22.20;34.00
11454;DHT22;5783;55.174;61.310;2023-06-19T14:56:45;22.30;33.70
11454;DHT22;5783;55.174;61.310;2023-06-19T14:59:15;22.20;33.70
11454;DHT22;5783;55.174;61.310;2023-06-19T15:01:46;22.20;33.80
11454;DHT22;5783;55.174;61.310;2023-06-19T15:04:15;22.30;34.20
11454;DHT22;5783;55.174;61.310;2023-06-19T15:06:44;22.40;34.50
11454;DHT22;5783;55.174;61.310;2023-06-19T15:09:13;22.60;34.20
11454;DHT22;5783;55.174;61.310;2023-06-19T15:11:42;22.70;34.90
11454;DHT22;5783;55.174;61.310;2023-06-19T15:14:11;22.80;34.90
11454;DHT22;5783;55.174;61.310;2023-06-19T15:16:41;22.90;34.80
11454;DHT22;5783;55.174;61.310;2023-06-19T15:19:10;23.00;34.90
11454;DHT22;5783;55.174;61.310;2023-06-19T15:21:40;23.00;35.10
11454;DHT22;5783;55.174;61.310;2023-06-19T15:24:10;23.10;35.40
11454;DHT22;5783;55.174;61.310;2023-06-19T15:26:39;23.10;35.60
11454;DHT22;5783;55.174;61.310;2023-06-19T15:29:08;23.20;35.90
11454;DHT22;5783;55.174;61.310;2023-06-19T15:31:37;23.20;36.20
11454;DHT22;5783;55.174;61.310;2023-06-19T15:34:06;23.20;36.20
11454;DHT22;5783;55.174;61.310;2023-06-19T15:36:35;23.30;36.40
11454;DHT22;5783;55.174;61.310;2023-06-19T15:39:04;23.30;36.80
11454;DHT22;5783;55.174;61.310;2023-06-19T15:41:35;23.30;36.80
11454;DHT22;5783;55.174;61.310;2023-06-19T15:44:04;23.30;36.90
11454;DHT22;5783;55.174;61.310;2023-06-19T15:46:33;23.30;37.00
11454;DHT22;5783;55.174;61.310;2023-06-19T15:49:03;23.40;37.00
11454;DHT22;5783;55.174;61.310;2023-06-19T15:51:32;23.40;37.10
11454;DHT22;5783;55.174;61.310;2023-06-19T15:54:01;23.40;37.10
11454;DHT22;5783;55.174;61.310;2023-06-19T15:56:31;23.40;37.20
11454;DHT22;5783;55.174;61.310;2023-06-19T15:59:00;23.50;36.80
11454;DHT22;5783;55.174;61.310;2023-06-19T16:01:29;23.40;37.10
11454;DHT22;5783;55.174;61.310;2023-06-19T16:03:58;23.50;37.40
11454;DHT22;5783;55.174;61.310;2023-06-19T16:06:27;23.50;37.20
11454;DHT22;5783;55.174;61.310;2023-06-19T16:08:57;23.40;36.80
11454;DHT22;5783;55.174;61.310;2023-06-19T16:11:26;23.50;37.10
11454;DHT22;5783;55.174;61.310;2023-06-19T16:13:55;23.50;37.20
11454;DHT22;5783;55.174;61.310;2023-06-19T16:16:26;23.50;37.40
11454;DHT22;5783;55.174;61.310;2023-06-19T16:18:55;23.50;37.20
11454;DHT22;5783;55.174;61.310;2023-06-19T16:21:24;23.50;37.20
11454;DHT22;5783;55.174;61.310;2023-06-19T16:23:54;23.40;37.20
11454;DHT22;5783;55.174;61.310;2023-06-19T16:26:23;23.40;37.30
11454;DHT22;5783;55.174;61.310;2023-06-19T16:28:52;23.40;37.10